Latest Coastal Weather Observations for Taree Airport

IDN60701

Issued at 5:25 pm EST Tuesday 22 July 2014 (issued every 10 minutes, with the page automatically refreshed every 10 minutes)

About coastal observations | Map of coastal stations | Coastal observations for NSW | Marine services | Other Formats
Station Details ID: 060141 Name: TAREE AIRPORT AWS Lat: -31.89 Lon: 152.51 Height: 8.0 m
Data from the previous 72 hours. | See also: Recent months at Taree Airport
Date/Time
EST
Temp

°C
Wind Pressure Rain
since 9am
mm
Weather Cloud Vis
km
Sea
Height
m
Swell
Dir
 
Speed
knots
Gust
knots
hPa Trend Height
m
Period
s
Dir
22/05:00pm 12.7 NE 1 4 1021.9 - 0.2 - - - - - - -
22/04:30pm 13.5 ESE 4 5 1021.8 - 0.2 - Partly cloudy - - - - -
22/04:00pm 13.7 E 5 7 1021.6 - 0.2 - - - - - - -
22/03:30pm 13.8 E 9 14 1021.5 - 0.2 - Partly cloudy - - - - -
22/03:00pm 16.7 SSE 8 12 1020.9 - 0.2 - Mostly cloudy - - - - -
22/02:30pm 16.3 SSE 7 10 1020.7 - 0.2 - Partly cloudy - - - - -
22/02:00pm 16.5 ESE 3 9 1020.6 - 0.2 - Partly cloudy - - - - -
22/01:30pm 15.8 S 5 7 1020.9 - 0.2 - Partly cloudy - - - - -
22/01:00pm 16.8 S 6 7 1020.8 - 0.0 - Partly cloudy - - - - -
22/12:30pm 17.7 S 7 10 1021.0 - 0.0 - Partly cloudy - - - - -
22/12:00pm 17.4 S 7 9 1021.7 - 0.0 - Partly cloudy - - - - -
22/11:30am 16.4 S 9 14 1022.4 - 0.0 - Partly cloudy - - - - -
22/11:00am 17.3 SSE 7 9 1022.9 - 0.0 - Partly cloudy - - - - -
22/10:30am 17.0 SW 7 11 1023.1 - 0.0 - Partly cloudy - - - - -
22/10:00am 16.3 WSW 7 10 1023.3 - 0.0 - - - - - - -
22/09:30am 15.0 W 8 10 1023.3 - 0.0 - Partly cloudy - - - - -
22/09:00am 13.8 W 7 9 1023.4 - 0.0 - Mostly cloudy - - - - -
22/08:30am 13.2 W 6 8 1023.3 - 0.0 - Cloudy - - - - -
22/08:00am 12.1 W 5 7 1023.1 - 0.0 - Partly cloudy - - - - -
22/07:30am 11.6 W 6 7 1022.8 - 0.0 - Partly cloudy - - - - -
22/07:00am 11.3 W 5 6 1022.6 - 0.0 - Partly cloudy - - - - -
22/06:30am 11.3 W 5 6 1022.4 - 0.0 - Cloudy - - - - -
22/06:00am 11.2 W 5 5 1022.2 - 0.0 - Cloudy - - - - -
22/05:30am 11.4 W 5 7 1022.0 - 0.0 - Cloudy - - - - -
22/05:00am 11.4 WNW 5 6 1021.7 - 0.0 - Cloudy - - - - -
22/04:30am 11.4 WNW 5 6 1021.7 - 0.0 - Cloudy - - - - -
22/04:00am 11.3 W 6 7 1021.9 - 0.0 - Partly cloudy - - - - -
22/03:30am 11.5 W 5 6 1021.7 - 0.0 - Partly cloudy - - - - -
22/03:00am 11.5 W 6 8 1021.8 - 0.0 - Mostly cloudy - - - - -
22/02:30am 11.4 W 5 6 1022.0 - 0.0 - Cloudy - - - - -
22/02:00am 11.4 W 5 6 1022.1 - 0.0 - Cloudy - - - - -
22/01:30am 11.6 W 3 4 1022.2 - 0.0 - Partly cloudy - - - - -
22/01:00am 12.4 WNW 5 8 1022.5 - 0.0 - Partly cloudy - - - - -
22/12:30am 12.2 WNW 5 7 1022.7 - 0.0 - Cloudy - - - - -
22/12:00am 11.6 NNW 0 0 1022.7 - 0.0 - Mostly cloudy - - - - -
 
Date/Time
EST
Temp

°C
Wind Pressure Rain
since 9am
mm
Weather Cloud Vis
km
Sea
Height
m
Swell
Dir
 
Speed
knots
Gust
knots
hPa Trend Height
m
Period
s
Dir
21/11:30pm 11.2 WNW 1 3 1022.8 - 0.0 - Partly cloudy - - - - -
21/11:00pm 12.1 W 4 5 1023.1 - 0.0 - Partly cloudy - - - - -
21/10:30pm 12.4 W 4 5 1023.1 - 0.0 - Partly cloudy - - - - -
21/10:00pm 12.8 W 5 6 1023.4 - 0.0 - Partly cloudy - - - - -
21/09:30pm 12.9 W 6 7 1023.5 - 0.0 - Partly cloudy - - - - -
21/09:00pm 13.2 W 5 7 1023.3 - 0.0 - Cloudy - - - - -
21/08:30pm 13.4 W 5 5 1023.4 - 0.0 - Cloudy - - - - -
21/08:00pm 13.6 WSW 5 5 1023.4 - 0.0 - Partly cloudy - - - - -
21/07:30pm 13.7 WSW 5 5 1023.4 - 0.0 - Partly cloudy - - - - -
21/07:00pm 13.9 WSW 4 5 1023.2 - 0.0 - Cloudy - - - - -
21/06:30pm 14.0 S 4 4 1023.0 - 0.0 - Partly cloudy - - - - -
21/06:00pm 14.5 S 3 4 1022.9 - 0.0 - Cloudy - - - - -
21/05:30pm 15.0 SSE 5 6 1022.6 - 0.0 - Cloudy - - - - -
21/05:00pm 15.4 SE 5 6 1022.5 - 0.0 - Partly cloudy - - - - -
21/04:30pm 15.6 SE 5 7 1022.4 - 0.0 - Cloudy - - - - -
21/04:00pm 16.1 SE 8 10 1022.1 - 0.0 - Partly cloudy - - - - -
21/03:30pm 16.5 SE 8 10 1022.0 - 0.0 - Cloudy - - - - -
21/03:00pm 17.0 SE 8 10 1021.9 - 0.0 - Cloudy - - - - -
21/02:30pm 17.2 SE 7 9 1022.0 - 0.0 - Cloudy - - - - -
21/02:00pm 17.1 SE 8 11 1022.0 - 0.0 - Cloudy - - - - -
21/01:30pm 17.7 SSE 5 7 1022.1 - 0.0 - Partly cloudy - - - - -
21/01:00pm 18.4 WSW 5 6 1022.4 - 0.0 - Partly cloudy - - - - -
21/12:30pm 17.6 S 5 9 1022.7 - 0.0 - Partly cloudy - - - - -
21/12:00pm 17.5 SW 5 7 1023.5 - 0.0 - Mostly clear - - - - -
21/11:30am 17.1 SSW 7 10 1024.1 - 0.0 - Partly cloudy - - - - -
21/11:00am 16.9 SW 5 8 1024.8 - 0.0 - Partly cloudy - - - - -
21/10:30am 16.4 W 7 8 1025.1 - 0.0 - Partly cloudy - - - - -
21/10:00am 14.9 W 6 8 1025.5 - 0.0 - Partly cloudy - - - - -
21/09:30am 14.7 W 7 10 1025.5 - 0.0 - Cloudy - - - - -
21/09:00am 13.5 W 7 9 1025.6 - 0.0 - Cloudy - - - - -
21/08:30am 13.2 WNW 6 9 1025.3 - 0.0 - Cloudy - - - - -
21/08:00am 12.7 WNW 6 8 1025.3 - 0.0 - Cloudy - - - - -
21/07:30am 12.3 NW 7 8 1025.1 - 0.0 - Cloudy - - - - -
21/07:00am 11.9 W 7 9 1024.9 - 0.0 - Partly cloudy - - - - -
21/06:30am 11.7 W 8 10 1024.6 - 0.0 - Partly cloudy - - - - -
21/06:00am 12.0 W 7 9 1024.5 - 0.0 - Cloudy - - - - -
21/05:30am 12.1 W 6 8 1024.3 - 0.0 - Cloudy - - - - -
21/05:00am 12.2 W 6 8 1024.2 - 0.0 - Cloudy - - - - -
21/04:30am 12.4 W 7 10 1024.0 - 0.0 - Cloudy - - - - -
21/04:00am 12.3 W 7 9 1023.9 - 0.0 - Cloudy - - - - -
21/03:30am 12.2 WNW 5 7 1023.9 - 0.0 - Cloudy - - - - -
21/03:00am 12.1 W 6 9 1023.8 - 0.0 - Mostly cloudy - - - - -
21/02:30am 12.2 W 7 8 1023.8 - 0.0 - Partly cloudy - - - - -
21/02:00am 12.7 W 6 8 1024.0 - 0.0 - Cloudy - - - - -
21/01:30am 12.8 W 7 10 1024.1 - 0.0 - Cloudy - - - - -
21/01:00am 12.8 W 6 8 1024.1 - 0.0 - Cloudy - - - - -
21/12:30am 13.0 W 7 10 1024.1 - 0.0 - Cloudy - - - - -
21/12:00am 13.0 W 7 9 1024.1 - 0.0 - Mostly cloudy - - - - -
 
Date/Time
EST
Temp

°C
Wind Pressure Rain
since 9am
mm
Weather Cloud Vis
km
Sea
Height
m
Swell
Dir
 
Speed
knots
Gust
knots
hPa Trend Height
m
Period
s
Dir
20/11:30pm 13.0 W 7 9 1024.3 - 0.0 - Cloudy - - - - -
20/11:00pm 13.1 W 7 11 1024.4 - 0.0 - Partly cloudy - - - - -
20/10:30pm 13.1 W 8 10 1024.3 - 0.0 - Partly cloudy - - - - -
20/10:00pm 13.0 W 7 9 1024.3 - 0.0 - Partly cloudy - - - - -
20/09:30pm 13.1 W 6 8 1024.5 - 0.0 - Partly cloudy - - - - -
20/09:00pm 13.1 W 7 10 1024.5 - 0.0 - Cloudy - - - - -
20/08:30pm 13.0 W 7 11 1024.4 - 0.0 - Partly cloudy - - - - -
20/08:00pm 12.9 W 7 10 1024.3 - 0.0 - Cloudy - - - - -
20/07:30pm 12.9 W 7 9 1024.3 - 0.0 - Partly cloudy - - - - -
20/07:00pm 12.5 W 6 8 1024.0 - 0.0 - Partly cloudy - - - - -
20/06:30pm 12.7 W 7 9 1023.9 - 0.0 - Partly cloudy - - - - -
20/06:00pm 12.8 W 7 10 1023.8 - 0.0 - Cloudy - - - - -
20/05:30pm 12.9 W 7 11 1023.6 - 0.0 - Partly cloudy - - - - -
20/05:00pm 13.4 WSW 9 14 1023.2 - 0.0 - Partly cloudy - - - - -
20/04:30pm 13.9 WSW 9 14 1023.0 - 0.0 - Partly cloudy - - - - -
20/04:00pm 13.8 SW 9 13 1023.0 - 0.0 - Partly cloudy - - - - -
20/03:30pm 13.3 WSW 11 15 1022.7 - 0.0 - Partly cloudy - - - - -
20/03:00pm 12.7 WSW 9 16 1022.6 - 0.0 - Partly cloudy - - - - -
20/02:30pm 13.0 WSW 10 15 1022.5 - 0.0 - Partly cloudy - - - - -
20/02:00pm 13.4 WSW 10 16 1022.2 - 0.0 - Partly cloudy - - - - -
20/01:30pm 13.5 WSW 12 16 1022.3 - 0.0 - Partly cloudy - - - - -
20/01:00pm 13.0 WSW 12 16 1022.1 - 0.0 - Partly cloudy - - - - -
20/12:30pm 12.5 WSW 11 16 1022.5 - 0.0 - Partly cloudy - - - - -
20/12:00pm 13.8 WSW 11 15 1022.6 - 0.0 - Mostly cloudy - - - - -
20/11:30am 13.5 WSW 11 17 1022.7 - 0.0 - Partly cloudy - - - - -
20/11:00am 13.5 WSW 10 18 1022.9 - 0.0 - Cloudy - - - - -
20/10:30am 13.5 WSW 11 17 1022.9 - 0.0 - Cloudy - - - - -
20/10:00am 13.6 W 10 15 1022.9 - 0.0 - Partly cloudy - - - - -
20/09:30am 13.3 W 9 15 1022.7 - 0.0 - Partly cloudy - - - - -
20/09:00am 12.9 WSW 10 16 1022.5 - 0.4 - Mostly cloudy - - - - -
20/08:30am 12.2 W 10 14 1022.3 - 0.4 - Partly cloudy - - - - -
20/08:00am 11.6 W 8 12 1021.9 - 0.4 - - - - - - -
20/07:30am 10.8 W 9 14 1022.0 - 0.4 - Partly cloudy - - - - -
20/07:00am 10.6 WSW 9 14 1022.0 - 0.4 - Partly cloudy - - - - -
20/06:30am 10.6 W 9 15 1021.5 - 0.4 - Partly cloudy - - - - -
20/06:00am 10.3 W 10 15 1021.4 - 0.4 - Cloudy - - - - -
20/05:30am 10.5 W 12 19 1021.2 - 0.4 - Partly cloudy - - - - -
20/05:00am 10.7 W 10 15 1021.0 - 0.4 - Partly cloudy - - - - -
20/04:30am 11.1 W 11 16 1020.7 - 0.4 - Partly cloudy - - - - -
20/04:00am 10.3 W 11 16 1020.5 - 0.4 - Partly cloudy - - - - -
20/03:30am 11.1 W 11 18 1020.5 - 0.2 - Partly cloudy - - - - -
20/03:00am 11.3 WSW 9 15 1020.6 - 0.2 - Cloudy - - - - -
20/02:30am 11.2 WSW 10 15 1020.5 - 0.2 - Partly cloudy - - - - -
20/02:00am 11.0 WSW 9 14 1020.6 - 0.2 - Partly cloudy - - - - -
20/01:30am 11.1 WSW 7 10 1020.8 - 0.2 - Partly cloudy - - - - -
20/01:00am 11.2 WSW 7 10 1020.8 - 0.0 - Partly cloudy - - - - -
20/12:30am 11.9 WSW 11 18 1020.8 - 0.0 - Partly cloudy - - - - -
20/12:00am 12.6 WSW 12 18 1021.3 - 0.0 - Cloudy - - - - -
 
Date/Time
EST
Temp

°C
Wind Pressure Rain
since 9am
mm
Weather Cloud Vis
km
Sea
Height
m
Swell
Dir
 
Speed
knots
Gust
knots
hPa Trend Height
m
Period
s
Dir
19/11:30pm 12.6 WSW 11 17 1021.2 - 0.0 - Partly cloudy - - - - -
19/11:00pm 12.6 WSW 9 11 1021.5 - 0.0 - Partly cloudy - - - - -
19/10:30pm 12.5 WSW 12 18 1021.6 - 0.0 - Partly cloudy - - - - -
19/10:00pm 12.5 SW 11 17 1021.6 - 0.0 - Partly cloudy - - - - -
19/09:30pm 12.7 SW 15 20 1021.8 - 0.0 - Partly cloudy - - - - -
19/09:00pm 12.8 WSW 16 22 1021.9 - 0.0 - Cloudy - - - - -
19/08:30pm 13.1 WSW 13 19 1021.9 - 0.0 - Partly cloudy - - - - -
19/08:00pm 13.3 SW 14 20 1021.8 - 0.0 - Partly cloudy - - - - -
19/07:30pm 13.1 WSW 12 16 1021.8 - 0.0 - Partly cloudy - - - - -
19/07:00pm 13.2 WSW 11 17 1021.5 - 0.0 - Partly cloudy - - - - -
19/06:30pm 12.8 WSW 9 15 1021.2 - 0.0 - Partly cloudy - - - - -
19/06:00pm 12.5 WSW 11 15 1020.7 - 0.0 - Cloudy - - - - -
19/05:30pm 12.8 SW 16 21 1020.4 - 0.0 - Partly cloudy - - - - -

Other Formats:

Comma delimited format used in spreadsheet applications
http://www.bom.gov.au/fwo/IDN60701/IDN60701.95784.axf

JavaScript Object Notation format (JSON) in row-major order
http://www.bom.gov.au/fwo/IDN60701/IDN60701.95784.json